createdAt,value
2019-04-16T00:01:48.934Z,39.60
2019-04-16T00:04:53.629Z,39.60
2019-04-16T00:07:39.797Z,39.50
2019-04-16T00:10:27.026Z,39.80
2019-04-16T00:13:20.698Z,39.70
2019-04-16T00:15:49.637Z,39.80
2019-04-16T00:18:19.414Z,40.30
2019-04-16T00:21:16.753Z,39.70
2019-04-16T00:23:59.893Z,39.60
2019-04-16T00:26:28.844Z,39.60
2019-04-16T00:29:01.621Z,39.80
2019-04-16T00:31:28.888Z,39.60
2019-04-16T00:33:57.835Z,39.60
2019-04-16T00:36:26.714Z,39.70
2019-04-16T00:38:55.586Z,39.70
2019-04-16T00:41:24.408Z,39.80
2019-04-16T00:43:53.320Z,39.70
2019-04-16T00:46:22.310Z,39.70
2019-04-16T00:48:52.230Z,39.70
2019-04-16T00:51:21.141Z,39.60
2019-04-16T00:53:50.108Z,39.70
2019-04-16T00:56:18.948Z,40.00
2019-04-16T00:58:49.417Z,39.90
2019-04-16T01:01:18.573Z,40.00
2019-04-16T01:03:47.394Z,40.00
2019-04-16T01:06:16.231Z,39.90
2019-04-16T01:08:54.354Z,39.90
2019-04-16T01:11:15.607Z,39.90
2019-04-16T01:13:45.146Z,40.00
2019-04-16T01:16:14.338Z,39.90
2019-04-16T01:18:43.341Z,40.40
2019-04-16T01:21:14.150Z,40.20
2019-04-16T01:23:42.974Z,40.10
2019-04-16T01:26:11.819Z,39.90
2019-04-16T01:28:46.848Z,40.20
2019-04-16T01:31:44.738Z,40.30
2019-04-16T01:34:32.760Z,40.50
2019-04-16T01:37:19.240Z,40.30
2019-04-16T01:39:50.436Z,40.20
2019-04-16T01:42:23.136Z,39.90
2019-04-16T01:44:49.901Z,40.10
2019-04-16T01:47:18.750Z,40.00
2019-04-16T01:49:47.612Z,40.20
2019-04-16T01:52:18.940Z,40.00
2019-04-16T01:54:47.270Z,40.30
2019-04-16T01:57:16.262Z,40.20
2019-04-16T01:59:45.109Z,40.30
2019-04-16T02:02:15.580Z,40.30
2019-04-16T02:04:44.577Z,40.10
2019-04-16T02:07:13.522Z,40.40
2019-04-16T02:09:42.514Z,40.10
2019-04-16T02:12:13.231Z,39.90
2019-04-16T02:14:42.163Z,40.00
2019-04-16T02:17:11.169Z,40.30
2019-04-16T02:19:40.033Z,40.00
2019-04-16T02:22:12.570Z,40.20
2019-04-16T02:24:39.478Z,40.10
2019-04-16T02:27:08.558Z,40.10
2019-04-16T02:29:37.599Z,40.30
2019-04-16T02:32:06.527Z,40.20
2019-04-16T02:34:35.393Z,40.10
2019-04-16T02:37:04.600Z,40.10
2019-04-16T02:39:47.610Z,40.10
2019-04-16T02:42:04.706Z,40.60
2019-04-16T02:44:33.729Z,40.20
2019-04-16T02:47:06.219Z,40.00
2019-04-16T02:49:33.313Z,40.10
2019-04-16T02:52:06.387Z,40.10
2019-04-16T02:54:45.716Z,40.20
2019-04-16T02:57:39.474Z,39.70
2019-04-16T03:00:22.889Z,39.70
2019-04-16T03:02:57.294Z,40.00
2019-04-16T03:05:37.926Z,40.00
2019-04-16T03:08:06.856Z,40.10
2019-04-16T03:10:36.395Z,40.00
2019-04-16T03:13:05.305Z,40.20
2019-04-16T03:16:06.352Z,40.00
2019-04-16T03:18:48.201Z,40.00
2019-04-16T03:21:17.429Z,40.00
2019-04-16T03:23:46.375Z,40.30
2019-04-16T03:26:17.588Z,40.10
2019-04-16T03:28:45.958Z,40.20
2019-04-16T03:31:20.676Z,40.30
2019-04-16T03:33:50.215Z,40.30
2019-04-16T03:36:16.154Z,40.10
2019-04-16T03:38:45.021Z,40.20
2019-04-16T03:41:13.938Z,40.20
2019-04-16T03:43:42.918Z,40.30
2019-04-16T03:46:13.097Z,40.30
2019-04-16T03:48:42.542Z,40.30
2019-04-16T03:51:11.487Z,40.50
2019-04-16T03:53:40.401Z,40.30
2019-04-16T03:56:09.321Z,40.10
2019-04-16T03:58:39.401Z,40.40
2019-04-16T04:01:08.414Z,40.40
2019-04-16T04:03:37.275Z,40.40
2019-04-16T04:06:06.929Z,40.40
2019-04-16T04:08:37.223Z,40.20
2019-04-16T04:11:09.186Z,40.10
2019-04-16T04:13:36.786Z,40.20
2019-04-16T04:16:06.012Z,40.30
2019-04-16T04:18:35.013Z,40.10
2019-04-16T04:21:03.910Z,40.10
2019-04-16T04:23:32.771Z,40.10
2019-04-16T04:26:01.669Z,40.30
2019-04-16T04:28:30.521Z,40.10
2019-04-16T04:31:00.880Z,40.00
2019-04-16T04:33:40.991Z,40.10
2019-04-16T04:36:09.441Z,40.40
2019-04-16T04:38:39.619Z,40.00
2019-04-16T04:41:08.855Z,40.10
2019-04-16T04:43:37.997Z,40.00
2019-04-16T04:46:12.976Z,40.10
2019-04-16T04:48:37.635Z,40.40
2019-04-16T04:51:08.144Z,40.30
2019-04-16T04:53:37.194Z,40.20
2019-04-16T04:56:06.164Z,40.30
2019-04-16T04:58:35.171Z,40.30
2019-04-16T05:01:04.155Z,40.20
2019-04-16T05:04:04.361Z,40.40
2019-04-16T05:06:36.078Z,40.30
2019-04-16T05:09:06.356Z,40.30
2019-04-16T05:11:35.232Z,40.50
2019-04-16T05:14:04.283Z,40.30
2019-04-16T05:16:34.370Z,40.70
2019-04-16T05:19:04.191Z,40.60
2019-04-16T05:21:33.070Z,40.70
2019-04-16T05:24:01.914Z,40.40
2019-04-16T05:26:33.524Z,40.30
2019-04-16T05:29:16.309Z,40.30
2019-04-16T05:31:42.882Z,40.60
2019-04-16T05:34:11.862Z,40.60
2019-04-16T05:36:46.573Z,40.40
2019-04-16T05:39:11.441Z,40.70
2019-04-16T05:41:40.371Z,40.50
2019-04-16T05:44:09.287Z,40.70
2019-04-16T05:46:38.343Z,40.70
2019-04-16T05:49:07.663Z,40.50
2019-04-16T05:51:36.506Z,40.30
2019-04-16T05:54:27.633Z,40.30
2019-04-16T05:56:58.331Z,40.50
2019-04-16T05:59:27.202Z,40.30
2019-04-16T06:02:04.977Z,40.20
2019-04-16T06:04:34.071Z,40.30
2019-04-16T06:07:07.315Z,40.50
2019-04-16T06:09:33.604Z,40.40
2019-04-16T06:12:02.505Z,40.50
2019-04-16T06:14:41.843Z,40.30
2019-04-16T06:17:31.891Z,40.50
2019-04-16T06:20:07.477Z,40.40
2019-04-16T06:22:54.161Z,40.50
2019-04-16T06:25:41.041Z,40.40
2019-04-16T06:28:15.439Z,39.90
2019-04-16T06:30:48.238Z,40.00
2019-04-16T06:33:20.947Z,39.80
2019-04-16T06:36:08.501Z,40.00
2019-04-16T06:38:51.074Z,39.70
2019-04-16T06:41:41.802Z,39.20
2019-04-16T06:44:12.900Z,39.10
2019-04-16T06:46:51.369Z,38.80
2019-04-16T06:49:28.099Z,38.70
2019-04-16T06:52:19.164Z,38.00
2019-04-16T06:55:00.503Z,37.90
2019-04-16T06:57:45.129Z,37.80
2019-04-16T07:00:35.085Z,37.30
2019-04-16T07:03:28.752Z,37.70
2019-04-16T07:06:30.236Z,37.40
2019-04-16T07:09:24.594Z,37.10
2019-04-16T07:11:54.941Z,37.00
2019-04-16T07:14:24.218Z,36.70
2019-04-16T07:16:53.050Z,36.60
2019-04-16T07:19:22.110Z,36.60
2019-04-16T07:21:50.989Z,36.40
2019-04-16T07:24:22.770Z,36.60
2019-04-16T07:26:50.635Z,37.00
2019-04-16T07:29:31.570Z,36.00
2019-04-16T07:32:15.333Z,35.90
2019-04-16T07:34:53.436Z,35.50
2019-04-16T07:37:33.074Z,35.50
2019-04-16T07:40:36.048Z,36.20
2019-04-16T07:43:24.096Z,35.80
2019-04-16T07:46:03.120Z,35.40
2019-04-16T07:48:39.847Z,35.30
2019-04-16T07:51:36.043Z,34.80
2019-04-16T07:54:30.635Z,34.90
2019-04-16T07:56:59.570Z,34.40
2019-04-16T07:59:32.001Z,34.40
2019-04-16T08:01:59.100Z,33.90
2019-04-16T08:04:29.175Z,34.00
2019-04-16T08:06:58.447Z,34.00
2019-04-16T08:09:29.949Z,34.00
2019-04-16T08:11:58.117Z,33.80
2019-04-16T08:14:26.962Z,33.90
2019-04-16T08:16:56.052Z,33.60
2019-04-16T08:19:36.271Z,33.80
2019-04-16T08:21:55.452Z,33.80
2019-04-16T08:24:29.478Z,33.40
2019-04-16T08:26:58.358Z,33.40
2019-04-16T08:29:27.295Z,33.50
2019-04-16T08:31:56.277Z,33.20
2019-04-16T08:34:25.220Z,33.20
2019-04-16T08:36:54.068Z,33.20
2019-04-16T08:39:23.087Z,33.20
2019-04-16T08:41:53.025Z,33.30
2019-04-16T08:44:22.125Z,33.00
2019-04-16T08:46:51.053Z,32.80
2019-04-16T08:49:22.351Z,32.80
2019-04-16T08:51:50.487Z,32.60
2019-04-16T08:54:19.407Z,32.50
2019-04-16T08:56:48.401Z,32.60
2019-04-16T08:59:17.330Z,32.60
2019-04-16T09:01:46.662Z,32.40
2019-04-16T09:04:15.605Z,32.70
2019-04-16T09:06:46.372Z,32.50
2019-04-16T09:09:31.929Z,32.30
2019-04-16T09:12:07.870Z,32.40
2019-04-16T09:14:37.174Z,32.30
2019-04-16T09:17:15.691Z,32.40
2019-04-16T09:19:54.475Z,32.40
2019-04-16T09:22:23.322Z,32.20
2019-04-16T09:24:59.953Z,32.10
2019-04-16T09:27:40.514Z,32.10
2019-04-16T09:30:27.963Z,32.10
2019-04-16T09:33:02.322Z,33.00
2019-04-16T09:35:35.518Z,32.20
2019-04-16T09:38:18.798Z,31.80
2019-04-16T09:41:12.931Z,31.70
2019-04-16T09:43:44.943Z,32.00
2019-04-16T09:46:21.059Z,31.80
2019-04-16T09:48:44.586Z,31.80
2019-04-16T09:51:18.911Z,31.80
2019-04-16T09:53:44.097Z,31.80
2019-04-16T09:56:29.913Z,31.60
2019-04-16T09:59:14.768Z,31.60
2019-04-16T10:01:45.178Z,31.30
2019-04-16T10:04:16.366Z,31.30
2019-04-16T10:06:45.342Z,31.10
2019-04-16T10:09:20.023Z,31.10
2019-04-16T10:11:44.983Z,31.20
2019-04-16T10:14:13.915Z,31.20
2019-04-16T10:16:42.904Z,31.30
2019-04-16T10:19:11.897Z,31.00
2019-04-16T10:21:40.732Z,31.00
2019-04-16T10:24:27.496Z,31.00
2019-04-16T10:26:59.908Z,31.10
2019-04-16T10:29:28.118Z,31.20
2019-04-16T10:31:57.130Z,31.00
2019-04-16T10:34:26.005Z,30.90
2019-04-16T10:36:54.946Z,30.60
2019-04-16T10:39:30.132Z,30.70
2019-04-16T10:42:29.987Z,30.60
2019-04-16T10:45:10.431Z,30.60
2019-04-16T10:47:51.532Z,30.10
2019-04-16T10:50:39.602Z,30.40
2019-04-16T10:53:32.335Z,30.50
2019-04-16T10:56:12.276Z,30.10
2019-04-16T10:58:59.111Z,30.10
2019-04-16T11:01:35.738Z,30.00
2019-04-16T11:04:22.538Z,30.30
2019-04-16T11:06:52.088Z,30.30
2019-04-16T11:09:20.976Z,30.00
2019-04-16T11:11:49.930Z,30.00
2019-04-16T11:14:18.986Z,29.90
2019-04-16T11:16:50.720Z,30.10
2019-04-16T11:19:19.971Z,30.00
2019-04-16T11:21:48.882Z,30.00
2019-04-16T11:24:20.469Z,30.10
2019-04-16T11:26:48.525Z,30.10
2019-04-16T11:29:17.361Z,30.20
2019-04-16T11:31:46.296Z,30.40
2019-04-16T11:34:15.263Z,30.20
2019-04-16T11:36:44.307Z,30.10
2019-04-16T11:39:13.343Z,30.40
2019-04-16T11:41:42.356Z,31.40
2019-04-16T11:44:15.610Z,30.40
2019-04-16T11:46:41.990Z,30.70
2019-04-16T11:49:10.989Z,30.80
2019-04-16T11:51:39.846Z,31.10
2019-04-16T11:54:11.422Z,31.10
2019-04-16T11:56:39.301Z,31.30
2019-04-16T11:59:08.211Z,31.40
2019-04-16T12:01:46.485Z,32.00
2019-04-16T12:04:21.535Z,31.70
2019-04-16T12:07:08.457Z,31.60
2019-04-16T12:09:46.134Z,31.60
2019-04-16T12:12:20.390Z,31.70
2019-04-16T12:15:26.569Z,31.70
2019-04-16T12:18:23.617Z,31.90
2019-04-16T12:20:58.840Z,31.80
2019-04-16T12:23:33.866Z,32.00
2019-04-16T12:26:27.914Z,32.30
2019-04-16T12:29:12.783Z,32.40
2019-04-16T12:32:03.584Z,32.20
2019-04-16T12:34:51.322Z,32.20
2019-04-16T12:37:37.341Z,32.30
2019-04-16T12:40:18.576Z,32.40
2019-04-16T12:43:06.121Z,32.30
2019-04-16T12:45:57.114Z,32.40
2019-04-16T12:48:37.521Z,32.40
2019-04-16T12:51:29.330Z,32.10
2019-04-16T12:54:11.809Z,32.00
2019-04-16T12:56:51.588Z,32.00
2019-04-16T12:59:42.731Z,32.00
2019-04-16T13:02:25.710Z,32.00
2019-04-16T13:04:58.776Z,32.00
2019-04-16T13:07:39.984Z,32.00
2019-04-16T13:10:37.491Z,32.00
2019-04-16T13:13:24.058Z,31.70
2019-04-16T13:16:01.214Z,31.90
2019-04-16T13:18:48.188Z,31.80
2019-04-16T13:21:19.551Z,31.90
2019-04-16T13:24:06.387Z,31.60
2019-04-16T13:26:45.897Z,31.80
2019-04-16T13:29:17.478Z,31.60
2019-04-16T13:31:46.474Z,31.70
2019-04-16T13:34:18.312Z,31.90
2019-04-16T13:36:45.938Z,31.90
2019-04-16T13:39:29.183Z,31.30
2019-04-16T13:41:58.327Z,31.30
2019-04-16T13:44:31.031Z,31.30
2019-04-16T13:47:03.033Z,31.20
2019-04-16T13:49:49.680Z,31.30
2019-04-16T13:52:20.440Z,31.50
2019-04-16T13:55:10.054Z,31.40
2019-04-16T13:57:39.445Z,31.30
2019-04-16T14:00:33.598Z,31.20
2019-04-16T14:03:05.088Z,31.30
2019-04-16T14:05:37.422Z,31.70
2019-04-16T14:08:04.826Z,31.70
2019-04-16T14:10:33.919Z,31.70
2019-04-16T14:13:02.931Z,31.70
2019-04-16T14:15:39.061Z,31.80
2019-04-16T14:18:05.185Z,31.90
2019-04-16T14:20:34.157Z,32.10
2019-04-16T14:23:03.113Z,32.10
2019-04-16T14:25:32.032Z,32.30
2019-04-16T14:28:03.147Z,32.10
2019-04-16T14:30:35.403Z,32.30
2019-04-16T14:33:07.357Z,32.40
2019-04-16T14:35:40.233Z,32.50
2019-04-16T14:38:08.407Z,32.50
2019-04-16T14:40:39.711Z,32.80
2019-04-16T14:43:08.074Z,32.70
2019-04-16T14:45:57.083Z,32.70
2019-04-16T14:48:13.761Z,32.90
2019-04-16T14:50:42.760Z,33.10
2019-04-16T14:53:13.579Z,33.10
2019-04-16T14:55:59.747Z,33.10
2019-04-16T14:58:49.438Z,33.20
2019-04-16T15:01:36.402Z,33.20
2019-04-16T15:04:23.351Z,33.20
2019-04-16T15:07:10.094Z,33.20
2019-04-16T15:09:50.562Z,33.30
2019-04-16T15:12:41.651Z,33.50
2019-04-16T15:15:23.965Z,33.30
2019-04-16T15:17:59.471Z,33.40
2019-04-16T15:20:50.488Z,33.50
2019-04-16T15:23:29.285Z,33.40
2019-04-16T15:26:11.066Z,33.40
2019-04-16T15:28:47.943Z,33.50
2019-04-16T15:31:41.088Z,33.50
2019-04-16T15:34:21.655Z,33.60
2019-04-16T15:37:12.670Z,33.20
2019-04-16T15:39:47.162Z,33.70
2019-04-16T15:42:33.045Z,33.80
2019-04-16T15:45:08.903Z,33.90
2019-04-16T15:47:54.278Z,34.00
2019-04-16T15:50:38.562Z,34.00
2019-04-16T15:53:29.610Z,34.20
2019-04-16T15:56:12.067Z,34.10
2019-04-16T15:59:04.414Z,34.20
2019-04-16T16:01:51.169Z,34.20
2019-04-16T16:04:27.826Z,34.20
2019-04-16T16:07:02.200Z,34.30
2019-04-16T16:09:58.654Z,34.30
2019-04-16T16:12:29.475Z,34.40
2019-04-16T16:14:58.409Z,34.40
2019-04-16T16:17:27.680Z,34.60
2019-04-16T16:19:56.649Z,34.60
2019-04-16T16:22:25.640Z,34.70
2019-04-16T16:24:54.550Z,34.80
2019-04-16T16:27:23.398Z,34.80
2019-04-16T16:29:52.380Z,34.80
2019-04-16T16:32:21.389Z,34.90
2019-04-16T16:34:50.285Z,34.80
2019-04-16T16:37:19.282Z,34.90
2019-04-16T16:39:48.115Z,35.10
2019-04-16T16:42:17.021Z,35.00
2019-04-16T16:44:45.877Z,35.10
2019-04-16T16:47:39.676Z,35.10
2019-04-16T16:50:10.315Z,35.10
2019-04-16T16:53:04.350Z,35.30
2019-04-16T16:55:45.705Z,35.20
2019-04-16T16:58:43.028Z,35.20
2019-04-16T17:01:46.145Z,35.80
2019-04-16T17:04:20.457Z,35.30
2019-04-16T17:06:49.400Z,35.30
2019-04-16T17:09:27.184Z,35.40
2019-04-16T17:11:57.569Z,35.50
2019-04-16T17:14:26.558Z,35.60
2019-04-16T17:16:55.558Z,35.50
2019-04-16T17:19:24.578Z,35.60
2019-04-16T17:21:53.439Z,35.60
2019-04-16T17:24:22.447Z,35.60
2019-04-16T17:26:51.443Z,35.60
2019-04-16T17:29:20.367Z,35.60
2019-04-16T17:31:50.059Z,35.70
2019-04-16T17:34:19.167Z,35.70
2019-04-16T17:36:48.081Z,35.70
2019-04-16T17:39:30.275Z,35.70
2019-04-16T17:42:05.073Z,35.80
2019-04-16T17:44:54.324Z,35.80
2019-04-16T17:47:48.555Z,36.00
2019-04-16T17:50:42.549Z,36.00
2019-04-16T17:53:21.196Z,36.10
2019-04-16T17:56:09.083Z,36.00
2019-04-16T17:58:57.055Z,36.00
2019-04-16T18:01:55.794Z,36.10
2019-04-16T18:04:46.938Z,36.20
2019-04-16T18:07:22.753Z,36.40
2019-04-16T18:10:02.026Z,36.40
2019-04-16T18:12:55.245Z,36.50
2019-04-16T18:15:50.517Z,36.50
2019-04-16T18:18:30.697Z,36.60
2019-04-16T18:21:18.654Z,36.70
2019-04-16T18:24:08.958Z,36.90
2019-04-16T18:26:55.468Z,36.90
2019-04-16T18:29:33.090Z,36.90
2019-04-16T18:32:27.642Z,36.90
2019-04-16T18:35:16.528Z,37.00
2019-04-16T18:38:03.135Z,37.10
2019-04-16T18:40:44.669Z,37.10
2019-04-16T18:43:28.204Z,37.10
2019-04-16T18:46:15.335Z,37.20
2019-04-16T18:48:45.525Z,37.30
2019-04-16T18:51:14.796Z,37.30
2019-04-16T18:53:44.143Z,37.30
2019-04-16T18:56:13.495Z,37.50
2019-04-16T18:58:42.385Z,37.70
2019-04-16T19:01:15.403Z,37.70
2019-04-16T19:03:44.390Z,37.80
2019-04-16T19:06:13.415Z,37.80
2019-04-16T19:08:42.480Z,37.80
2019-04-16T19:11:11.502Z,37.90
2019-04-16T19:13:40.358Z,37.90
2019-04-16T19:16:09.662Z,37.90
2019-04-16T19:18:38.899Z,38.00
2019-04-16T19:21:07.790Z,38.20
2019-04-16T19:23:36.698Z,38.20
2019-04-16T19:26:06.097Z,38.20
2019-04-16T19:28:36.225Z,38.30
2019-04-16T19:31:06.182Z,38.40
2019-04-16T19:33:38.329Z,38.50
2019-04-16T19:36:06.129Z,38.60
2019-04-16T19:38:35.746Z,38.50
2019-04-16T19:41:05.698Z,38.60
2019-04-16T19:43:35.558Z,38.70
2019-04-16T19:46:04.659Z,39.30
2019-04-16T19:48:35.708Z,38.70
2019-04-16T19:51:07.350Z,38.80
2019-04-16T19:53:34.785Z,38.80
2019-04-16T19:56:03.764Z,38.90
2019-04-16T19:58:32.683Z,39.10
2019-04-16T20:01:01.697Z,39.00
2019-04-16T20:03:31.324Z,39.30
2019-04-16T20:06:00.390Z,39.50
2019-04-16T20:08:34.374Z,39.60
2019-04-16T20:10:59.837Z,39.70
2019-04-16T20:13:29.721Z,39.90
2019-04-16T20:16:00.029Z,40.10
2019-04-16T20:18:29.583Z,40.60
2019-04-16T20:21:01.075Z,41.20
2019-04-16T20:23:30.117Z,41.40
2019-04-16T20:26:00.377Z,41.70
2019-04-16T20:28:29.519Z,42.00
2019-04-16T20:31:03.281Z,42.10
2019-04-16T20:33:29.098Z,42.40
2019-04-16T20:35:57.963Z,42.50
2019-04-16T20:38:29.336Z,42.50
2019-04-16T20:40:57.582Z,42.80
2019-04-16T20:43:26.654Z,42.90
2019-04-16T20:45:55.749Z,43.00
2019-04-16T20:48:24.686Z,43.10
2019-04-16T20:50:56.692Z,43.20
2019-04-16T20:53:24.263Z,43.20
2019-04-16T20:55:53.195Z,43.40
2019-04-16T20:58:22.455Z,43.50
2019-04-16T21:00:52.389Z,43.50
2019-04-16T21:03:22.585Z,43.60
2019-04-16T21:05:58.925Z,43.60
2019-04-16T21:08:25.177Z,43.60
2019-04-16T21:10:52.953Z,43.70
2019-04-16T21:13:21.863Z,43.90
2019-04-16T21:15:50.805Z,44.00
2019-04-16T21:18:19.718Z,44.10
2019-04-16T21:20:51.217Z,44.20
2019-04-16T21:23:19.118Z,44.30
2019-04-16T21:25:48.222Z,44.40
2019-04-16T21:28:39.905Z,44.50
2019-04-16T21:31:15.005Z,44.40
2019-04-16T21:33:52.187Z,44.60
2019-04-16T21:36:38.045Z,44.60
2019-04-16T21:39:17.069Z,44.70
2019-04-16T21:41:43.488Z,45.50
2019-04-16T21:44:13.274Z,45.00
2019-04-16T21:46:42.424Z,45.30
2019-04-16T21:49:11.329Z,45.50
2019-04-16T21:51:59.293Z,45.70
2019-04-16T21:54:30.545Z,45.90
2019-04-16T21:56:58.911Z,46.20
2019-04-16T21:59:27.835Z,46.40
2019-04-16T22:01:57.294Z,46.70
2019-04-16T22:04:26.444Z,47.00
2019-04-16T22:06:55.647Z,47.50
2019-04-16T22:09:24.657Z,47.50
2019-04-16T22:11:53.607Z,47.70
2019-04-16T22:14:22.995Z,47.80
2019-04-16T22:16:52.127Z,48.10
2019-04-16T22:19:20.987Z,48.30
2019-04-16T22:21:50.004Z,48.40
2019-04-16T22:24:19.745Z,48.50
2019-04-16T22:26:49.562Z,48.80
2019-04-16T22:29:18.414Z,48.90
2019-04-16T22:31:47.320Z,49.60
2019-04-16T22:34:16.219Z,49.10
2019-04-16T22:36:45.137Z,49.20
2019-04-16T22:39:23.750Z,49.20
2019-04-16T22:42:01.674Z,49.30
2019-04-16T22:45:04.946Z,49.40
2019-04-16T22:47:34.179Z,49.50
2019-04-16T22:50:14.772Z,49.60
2019-04-16T22:52:33.796Z,50.30
2019-04-16T22:55:02.630Z,49.70
2019-04-16T22:57:31.874Z,49.90
2019-04-16T23:00:01.152Z,49.90
2019-04-16T23:02:30.682Z,50.10
2019-04-16T23:05:00.082Z,50.20
2019-04-16T23:07:29.222Z,50.10
2019-04-16T23:09:58.070Z,50.20
2019-04-16T23:12:28.080Z,50.20
2019-04-16T23:14:57.436Z,50.30
2019-04-16T23:17:27.390Z,50.30
2019-04-16T23:19:56.285Z,50.30
2019-04-16T23:22:25.132Z,50.50
2019-04-16T23:24:55.137Z,50.60
2019-04-16T23:27:24.529Z,50.70
2019-04-16T23:29:53.354Z,50.80
2019-04-16T23:32:27.674Z,50.80
2019-04-16T23:34:52.756Z,50.90
2019-04-16T23:37:23.317Z,50.80
2019-04-16T23:39:52.170Z,51.00
2019-04-16T23:42:21.214Z,51.00
2019-04-16T23:45:03.687Z,51.10
2019-04-16T23:47:51.615Z,51.20
2019-04-16T23:50:46.459Z,51.20
2019-04-16T23:53:33.963Z,51.30
2019-04-16T23:56:13.652Z,51.30
2019-04-16T23:59:03.583Z,51.30
